sensor_id;sensor_type;location;lat;lon;timestamp;temperature;humidity
28548;DHT22;15750;49.600;8.746;2023-02-28T00:01:36;11.10;35.00
28548;DHT22;15750;49.600;8.746;2023-02-28T00:04:04;11.10;35.10
28548;DHT22;15750;49.600;8.746;2023-02-28T00:06:36;11.10;35.10
28548;DHT22;15750;49.600;8.746;2023-02-28T00:09:05;11.10;35.10
28548;DHT22;15750;49.600;8.746;2023-02-28T00:11:35;11.10;35.20
28548;DHT22;15750;49.600;8.746;2023-02-28T00:14:04;11.10;35.20
28548;DHT22;15750;49.600;8.746;2023-02-28T00:16:33;11.10;35.20
28548;DHT22;15750;49.600;8.746;2023-02-28T00:19:02;11.10;35.20
28548;DHT22;15750;49.600;8.746;2023-02-28T00:21:30;11.10;35.20
28548;DHT22;15750;49.600;8.746;2023-02-28T00:23:59;11.10;35.30
28548;DHT22;15750;49.600;8.746;2023-02-28T00:26:28;11.10;35.30
28548;DHT22;15750;49.600;8.746;2023-02-28T00:28:58;11.10;35.30
28548;DHT22;15750;49.600;8.746;2023-02-28T00:31:27;11.10;35.30
28548;DHT22;15750;49.600;8.746;2023-02-28T00:33:56;11.10;35.20
28548;DHT22;15750;49.600;8.746;2023-02-28T00:36:25;11.10;35.20
28548;DHT22;15750;49.600;8.746;2023-02-28T00:38:53;11.10;35.20
28548;DHT22;15750;49.600;8.746;2023-02-28T00:41:22;11.10;35.20
28548;DHT22;15750;49.600;8.746;2023-02-28T00:43:51;11.10;35.20
28548;DHT22;15750;49.600;8.746;2023-02-28T00:46:21;11.10;35.20
28548;DHT22;15750;49.600;8.746;2023-02-28T00:48:50;11.10;35.30
28548;DHT22;15750;49.600;8.746;2023-02-28T00:51:18;11.10;35.20
28548;DHT22;15750;49.600;8.746;2023-02-28T00:53:47;11.10;35.30
28548;DHT22;15750;49.600;8.746;2023-02-28T00:56:16;11.10;35.30
28548;DHT22;15750;49.600;8.746;2023-02-28T00:58:46;11.00;35.20
28548;DHT22;15750;49.600;8.746;2023-02-28T01:01:15;11.00;35.30
28548;DHT22;15750;49.600;8.746;2023-02-28T01:03:45;11.00;35.30
28548;DHT22;15750;49.600;8.746;2023-02-28T01:06:14;11.00;35.30
28548;DHT22;15750;49.600;8.746;2023-02-28T01:08:43;11.00;35.40
28548;DHT22;15750;49.600;8.746;2023-02-28T01:11:13;11.00;35.40
28548;DHT22;15750;49.600;8.746;2023-02-28T01:13:45;10.90;35.40
28548;DHT22;15750;49.600;8.746;2023-02-28T01:16:14;10.90;35.40
28548;DHT22;15750;49.600;8.746;2023-02-28T01:18:46;10.90;35.40
28548;DHT22;15750;49.600;8.746;2023-02-28T01:21:18;10.90;35.40
28548;DHT22;15750;49.600;8.746;2023-02-28T01:23:48;10.90;35.50
28548;DHT22;15750;49.600;8.746;2023-02-28T01:26:18;10.90;35.50
28548;DHT22;15750;49.600;8.746;2023-02-28T01:28:49;10.90;35.50
28548;DHT22;15750;49.600;8.746;2023-02-28T01:31:20;10.90;35.60
28548;DHT22;15750;49.600;8.746;2023-02-28T01:33:51;10.80;35.50
28548;DHT22;15750;49.600;8.746;2023-02-28T01:36:21;10.80;35.60
28548;DHT22;15750;49.600;8.746;2023-02-28T01:38:51;10.80;35.60
28548;DHT22;15750;49.600;8.746;2023-02-28T01:41:23;10.80;35.60
28548;DHT22;15750;49.600;8.746;2023-02-28T01:43:56;10.80;35.70
28548;DHT22;15750;49.600;8.746;2023-02-28T01:46:26;10.80;35.70
28548;DHT22;15750;49.600;8.746;2023-02-28T01:49:00;10.80;35.70
28548;DHT22;15750;49.600;8.746;2023-02-28T01:51:37;10.80;35.80
28548;DHT22;15750;49.600;8.746;2023-02-28T01:54:16;10.70;35.80
28548;DHT22;15750;49.600;8.746;2023-02-28T01:56:49;10.70;35.80
28548;DHT22;15750;49.600;8.746;2023-02-28T01:59:24;10.70;35.80
28548;DHT22;15750;49.600;8.746;2023-02-28T02:01:55;10.70;35.90
28548;DHT22;15750;49.600;8.746;2023-02-28T02:04:28;10.70;35.80
28548;DHT22;15750;49.600;8.746;2023-02-28T02:07:03;10.70;35.90
28548;DHT22;15750;49.600;8.746;2023-02-28T02:09:32;10.60;35.90
28548;DHT22;15750;49.600;8.746;2023-02-28T02:12:26;10.60;35.90
28548;DHT22;15750;49.600;8.746;2023-02-28T02:15:05;10.60;35.90
28548;DHT22;15750;49.600;8.746;2023-02-28T02:17:40;10.60;36.00
28548;DHT22;15750;49.600;8.746;2023-02-28T02:20:54;10.60;35.90
28548;DHT22;15750;49.600;8.746;2023-02-28T02:24:03;10.60;36.10
28548;DHT22;15750;49.600;8.746;2023-02-28T02:27:20;10.60;36.00
28548;DHT22;15750;49.600;8.746;2023-02-28T02:30:21;10.50;36.00
28548;DHT22;15750;49.600;8.746;2023-02-28T02:33:41;10.50;36.10
28548;DHT22;15750;49.600;8.746;2023-02-28T02:36:31;10.50;36.10
28548;DHT22;15750;49.600;8.746;2023-02-28T02:39:07;10.50;36.00
28548;DHT22;15750;49.600;8.746;2023-02-28T02:41:51;10.50;36.10
28548;DHT22;15750;49.600;8.746;2023-02-28T02:44:22;10.40;36.10
28548;DHT22;15750;49.600;8.746;2023-02-28T02:46:55;10.40;36.10
28548;DHT22;15750;49.600;8.746;2023-02-28T02:49:32;10.40;36.10
28548;DHT22;15750;49.600;8.746;2023-02-28T02:52:03;10.40;36.20
28548;DHT22;15750;49.600;8.746;2023-02-28T02:54:36;10.40;36.10
28548;DHT22;15750;49.600;8.746;2023-02-28T02:57:10;10.40;36.20
28548;DHT22;15750;49.600;8.746;2023-02-28T02:59:42;10.40;36.20
28548;DHT22;15750;49.600;8.746;2023-02-28T03:02:13;10.40;36.20
28548;DHT22;15750;49.600;8.746;2023-02-28T03:04:48;10.40;36.20
28548;DHT22;15750;49.600;8.746;2023-02-28T03:07:21;10.40;36.30
28548;DHT22;15750;49.600;8.746;2023-02-28T03:09:51;10.40;36.30
28548;DHT22;15750;49.600;8.746;2023-02-28T03:12:20;10.40;36.30
28548;DHT22;15750;49.600;8.746;2023-02-28T03:14:56;10.40;36.30
28548;DHT22;15750;49.600;8.746;2023-02-28T03:17:55;10.40;36.30
28548;DHT22;15750;49.600;8.746;2023-02-28T03:20:38;10.40;36.30
28548;DHT22;15750;49.600;8.746;2023-02-28T03:23:15;10.40;36.30
28548;DHT22;15750;49.600;8.746;2023-02-28T03:25:55;10.40;36.30
28548;DHT22;15750;49.600;8.746;2023-02-28T03:28:31;10.40;36.30
28548;DHT22;15750;49.600;8.746;2023-02-28T03:31:08;10.40;36.30
28548;DHT22;15750;49.600;8.746;2023-02-28T03:33:43;10.40;36.30
28548;DHT22;15750;49.600;8.746;2023-02-28T03:36:25;10.40;36.30
28548;DHT22;15750;49.600;8.746;2023-02-28T03:38:59;10.40;36.40
28548;DHT22;15750;49.600;8.746;2023-02-28T03:41:35;10.40;36.30
28548;DHT22;15750;49.600;8.746;2023-02-28T03:44:10;10.40;36.30
28548;DHT22;15750;49.600;8.746;2023-02-28T03:46:46;10.40;36.30
28548;DHT22;15750;49.600;8.746;2023-02-28T03:49:22;10.30;36.30
28548;DHT22;15750;49.600;8.746;2023-02-28T03:51:55;10.40;36.30
28548;DHT22;15750;49.600;8.746;2023-02-28T03:54:29;10.30;36.40
28548;DHT22;15750;49.600;8.746;2023-02-28T03:57:04;10.30;36.40
28548;DHT22;15750;49.600;8.746;2023-02-28T03:59:39;10.30;36.30
28548;DHT22;15750;49.600;8.746;2023-02-28T04:02:10;10.30;36.40
28548;DHT22;15750;49.600;8.746;2023-02-28T04:04:39;10.30;36.30
28548;DHT22;15750;49.600;8.746;2023-02-28T04:07:17;10.30;36.30
28548;DHT22;15750;49.600;8.746;2023-02-28T04:09:46;10.30;36.50
28548;DHT22;15750;49.600;8.746;2023-02-28T04:12:14;10.30;36.40
28548;DHT22;15750;49.600;8.746;2023-02-28T04:14:43;10.30;36.40
28548;DHT22;15750;49.600;8.746;2023-02-28T04:17:12;10.20;36.40
28548;DHT22;15750;49.600;8.746;2023-02-28T04:19:40;10.20;36.40
28548;DHT22;15750;49.600;8.746;2023-02-28T04:22:09;10.20;36.40
28548;DHT22;15750;49.600;8.746;2023-02-28T04:24:39;10.20;36.40
28548;DHT22;15750;49.600;8.746;2023-02-28T04:27:10;10.20;36.50
28548;DHT22;15750;49.600;8.746;2023-02-28T04:29:38;10.20;36.50
28548;DHT22;15750;49.600;8.746;2023-02-28T04:32:07;10.20;36.50
28548;DHT22;15750;49.600;8.746;2023-02-28T04:34:36;10.20;36.50
28548;DHT22;15750;49.600;8.746;2023-02-28T04:37:05;10.20;36.50
28548;DHT22;15750;49.600;8.746;2023-02-28T04:39:42;10.20;36.50
28548;DHT22;15750;49.600;8.746;2023-02-28T04:42:11;10.20;36.60
28548;DHT22;15750;49.600;8.746;2023-02-28T04:44:40;10.20;36.50
28548;DHT22;15750;49.600;8.746;2023-02-28T04:47:09;10.10;36.50
28548;DHT22;15750;49.600;8.746;2023-02-28T04:49:37;10.10;36.50
28548;DHT22;15750;49.600;8.746;2023-02-28T04:52:08;10.10;36.60
28548;DHT22;15750;49.600;8.746;2023-02-28T04:54:37;10.10;36.60
28548;DHT22;15750;49.600;8.746;2023-02-28T04:57:08;10.10;36.60
28548;DHT22;15750;49.600;8.746;2023-02-28T04:59:37;10.10;36.60
28548;DHT22;15750;49.600;8.746;2023-02-28T05:02:05;10.10;37.30
28548;DHT22;15750;49.600;8.746;2023-02-28T05:04:34;10.10;36.60
28548;DHT22;15750;49.600;8.746;2023-02-28T05:07:03;10.10;36.70
28548;DHT22;15750;49.600;8.746;2023-02-28T05:09:32;10.10;36.70
28548;DHT22;15750;49.600;8.746;2023-02-28T05:12:01;10.10;36.80
28548;DHT22;15750;49.600;8.746;2023-02-28T05:14:32;10.10;36.80
28548;DHT22;15750;49.600;8.746;2023-02-28T05:17:00;10.00;36.80
28548;DHT22;15750;49.600;8.746;2023-02-28T05:19:29;10.00;36.70
28548;DHT22;15750;49.600;8.746;2023-02-28T05:21:58;10.00;36.80
28548;DHT22;15750;49.600;8.746;2023-02-28T05:24:26;10.00;36.80
28548;DHT22;15750;49.600;8.746;2023-02-28T05:26:55;10.00;36.80
28548;DHT22;15750;49.600;8.746;2023-02-28T05:29:24;10.00;36.80
28548;DHT22;15750;49.600;8.746;2023-02-28T05:31:54;10.00;36.80
28548;DHT22;15750;49.600;8.746;2023-02-28T05:34:22;10.00;36.90
28548;DHT22;15750;49.600;8.746;2023-02-28T05:36:51;10.00;36.90
28548;DHT22;15750;49.600;8.746;2023-02-28T05:39:20;10.00;36.90
28548;DHT22;15750;49.600;8.746;2023-02-28T05:41:49;10.00;36.90
28548;DHT22;15750;49.600;8.746;2023-02-28T05:44:18;10.00;36.90
28548;DHT22;15750;49.600;8.746;2023-02-28T05:46:46;10.00;36.90
28548;DHT22;15750;49.600;8.746;2023-02-28T05:49:16;9.90;36.80
28548;DHT22;15750;49.600;8.746;2023-02-28T05:51:45;9.90;36.90
28548;DHT22;15750;49.600;8.746;2023-02-28T05:54:14;9.90;36.90
28548;DHT22;15750;49.600;8.746;2023-02-28T05:56:42;9.90;36.90
28548;DHT22;15750;49.600;8.746;2023-02-28T05:59:12;9.90;36.90
28548;DHT22;15750;49.600;8.746;2023-02-28T06:01:42;9.90;36.90
28548;DHT22;15750;49.600;8.746;2023-02-28T06:04:18;9.90;37.00
28548;DHT22;15750;49.600;8.746;2023-02-28T06:06:58;9.90;37.00
28548;DHT22;15750;49.600;8.746;2023-02-28T06:09:26;9.90;37.00
28548;DHT22;15750;49.600;8.746;2023-02-28T06:11:58;9.90;37.00
28548;DHT22;15750;49.600;8.746;2023-02-28T06:14:26;9.90;37.00
28548;DHT22;15750;49.600;8.746;2023-02-28T06:16:55;9.90;37.00
28548;DHT22;15750;49.600;8.746;2023-02-28T06:19:28;9.90;36.90
28548;DHT22;15750;49.600;8.746;2023-02-28T06:21:58;9.90;37.00
28548;DHT22;15750;49.600;8.746;2023-02-28T06:24:27;9.90;37.00
28548;DHT22;15750;49.600;8.746;2023-02-28T06:26:58;9.90;37.00
28548;DHT22;15750;49.600;8.746;2023-02-28T06:29:33;9.90;36.90
28548;DHT22;15750;49.600;8.746;2023-02-28T06:32:03;9.90;37.60
28548;DHT22;15750;49.600;8.746;2023-02-28T06:34:33;9.90;36.90
28548;DHT22;15750;49.600;8.746;2023-02-28T06:37:02;9.80;36.90
28548;DHT22;15750;49.600;8.746;2023-02-28T06:39:31;9.80;37.00
28548;DHT22;15750;49.600;8.746;2023-02-28T06:42:00;9.80;37.00
28548;DHT22;15750;49.600;8.746;2023-02-28T06:44:28;9.80;37.00
28548;DHT22;15750;49.600;8.746;2023-02-28T06:47:02;9.80;37.00
28548;DHT22;15750;49.600;8.746;2023-02-28T06:49:34;9.80;37.00
28548;DHT22;15750;49.600;8.746;2023-02-28T06:52:03;9.80;37.20
28548;DHT22;15750;49.600;8.746;2023-02-28T06:54:32;9.80;37.20
28548;DHT22;15750;49.600;8.746;2023-02-28T06:57:01;9.80;37.20
28548;DHT22;15750;49.600;8.746;2023-02-28T06:59:30;9.80;37.20
28548;DHT22;15750;49.600;8.746;2023-02-28T07:01:58;9.80;37.20
28548;DHT22;15750;49.600;8.746;2023-02-28T07:04:29;9.80;37.20
28548;DHT22;15750;49.600;8.746;2023-02-28T07:06:59;9.80;37.30
28548;DHT22;15750;49.600;8.746;2023-02-28T07:09:28;9.80;37.30
28548;DHT22;15750;49.600;8.746;2023-02-28T07:11:57;9.80;37.30
28548;DHT22;15750;49.600;8.746;2023-02-28T07:14:26;9.80;37.30
28548;DHT22;15750;49.600;8.746;2023-02-28T07:16:54;9.80;37.30
28548;DHT22;15750;49.600;8.746;2023-02-28T07:19:24;9.80;37.40
28548;DHT22;15750;49.600;8.746;2023-02-28T07:21:53;9.80;37.40
28548;DHT22;15750;49.600;8.746;2023-02-28T07:24:23;9.80;37.50
28548;DHT22;15750;49.600;8.746;2023-02-28T07:26:55;9.80;37.50
28548;DHT22;15750;49.600;8.746;2023-02-28T07:29:24;9.80;37.50
28548;DHT22;15750;49.600;8.746;2023-02-28T07:31:52;9.90;37.50
28548;DHT22;15750;49.600;8.746;2023-02-28T07:34:22;9.90;37.50
28548;DHT22;15750;49.600;8.746;2023-02-28T07:36:52;9.90;37.50
28548;DHT22;15750;49.600;8.746;2023-02-28T07:39:23;9.90;37.60
28548;DHT22;15750;49.600;8.746;2023-02-28T07:41:51;9.90;37.70
28548;DHT22;15750;49.600;8.746;2023-02-28T07:44:25;9.90;37.70
28548;DHT22;15750;49.600;8.746;2023-02-28T07:46:54;10.00;37.70
28548;DHT22;15750;49.600;8.746;2023-02-28T07:49:22;10.00;37.70
28548;DHT22;15750;49.600;8.746;2023-02-28T07:51:51;10.00;37.70
28548;DHT22;15750;49.600;8.746;2023-02-28T07:54:20;10.10;37.70
28548;DHT22;15750;49.600;8.746;2023-02-28T07:56:51;10.10;37.80
28548;DHT22;15750;49.600;8.746;2023-02-28T07:59:19;10.10;37.80
28548;DHT22;15750;49.600;8.746;2023-02-28T08:01:48;10.20;37.80
28548;DHT22;15750;49.600;8.746;2023-02-28T08:04:17;10.20;37.70
28548;DHT22;15750;49.600;8.746;2023-02-28T08:06:46;10.20;37.70
28548;DHT22;15750;49.600;8.746;2023-02-28T08:09:15;10.30;37.70
28548;DHT22;15750;49.600;8.746;2023-02-28T08:11:43;10.30;38.10
28548;DHT22;15750;49.600;8.746;2023-02-28T08:14:13;10.30;37.70
28548;DHT22;15750;49.600;8.746;2023-02-28T08:16:42;10.30;37.70
28548;DHT22;15750;49.600;8.746;2023-02-28T08:19:11;10.40;37.80
28548;DHT22;15750;49.600;8.746;2023-02-28T08:21:39;10.40;37.70
28548;DHT22;15750;49.600;8.746;2023-02-28T08:24:08;10.40;37.80
28548;DHT22;15750;49.600;8.746;2023-02-28T08:26:37;10.50;37.80
28548;DHT22;15750;49.600;8.746;2023-02-28T08:29:05;10.50;37.90
28548;DHT22;15750;49.600;8.746;2023-02-28T08:31:35;10.50;37.70
28548;DHT22;15750;49.600;8.746;2023-02-28T08:34:05;10.60;37.80
28548;DHT22;15750;49.600;8.746;2023-02-28T08:36:34;10.60;37.70
28548;DHT22;15750;49.600;8.746;2023-02-28T08:39:04;10.70;37.70
28548;DHT22;15750;49.600;8.746;2023-02-28T08:41:33;10.70;37.70
28548;DHT22;15750;49.600;8.746;2023-02-28T08:44:02;10.70;37.70
28548;DHT22;15750;49.600;8.746;2023-02-28T08:46:30;10.80;37.70
28548;DHT22;15750;49.600;8.746;2023-02-28T08:49:00;10.80;38.20
28548;DHT22;15750;49.600;8.746;2023-02-28T08:51:29;10.80;37.50
28548;DHT22;15750;49.600;8.746;2023-02-28T08:54:00;10.90;37.50
28548;DHT22;15750;49.600;8.746;2023-02-28T08:56:29;10.90;37.40
28548;DHT22;15750;49.600;8.746;2023-02-28T08:58:57;10.90;37.20
28548;DHT22;15750;49.600;8.746;2023-02-28T09:01:27;11.00;37.20
28548;DHT22;15750;49.600;8.746;2023-02-28T09:03:59;11.00;37.10
28548;DHT22;15750;49.600;8.746;2023-02-28T09:06:29;11.00;37.10
28548;DHT22;15750;49.600;8.746;2023-02-28T09:08:58;11.00;37.10
28548;DHT22;15750;49.600;8.746;2023-02-28T09:11:28;11.00;37.20
28548;DHT22;15750;49.600;8.746;2023-02-28T09:13:57;11.00;37.00
28548;DHT22;15750;49.600;8.746;2023-02-28T09:16:27;11.10;37.00
28548;DHT22;15750;49.600;8.746;2023-02-28T09:18:55;11.10;37.00
28548;DHT22;15750;49.600;8.746;2023-02-28T09:21:26;11.10;37.00
28548;DHT22;15750;49.600;8.746;2023-02-28T09:23:55;11.10;36.90
28548;DHT22;15750;49.600;8.746;2023-02-28T09:26:26;11.10;36.90
28548;DHT22;15750;49.600;8.746;2023-02-28T09:29:08;11.20;36.90
28548;DHT22;15750;49.600;8.746;2023-02-28T09:31:38;11.20;36.80
28548;DHT22;15750;49.600;8.746;2023-02-28T09:34:07;11.20;36.70
28548;DHT22;15750;49.600;8.746;2023-02-28T09:36:37;11.20;36.80
28548;DHT22;15750;49.600;8.746;2023-02-28T09:39:12;11.20;36.90
28548;DHT22;15750;49.600;8.746;2023-02-28T09:41:44;11.30;37.00
28548;DHT22;15750;49.600;8.746;2023-02-28T09:44:24;11.30;36.80
28548;DHT22;15750;49.600;8.746;2023-02-28T09:46:59;11.40;36.90
28548;DHT22;15750;49.600;8.746;2023-02-28T09:49:36;11.40;36.90
28548;DHT22;15750;49.600;8.746;2023-02-28T09:52:11;11.50;36.80
28548;DHT22;15750;49.600;8.746;2023-02-28T09:54:43;11.60;36.90
28548;DHT22;15750;49.600;8.746;2023-02-28T09:57:17;11.60;36.80
28548;DHT22;68292;49.600;8.746;2023-02-28T09:59:57;11.70;36.90
28548;DHT22;68292;49.600;8.746;2023-02-28T10:05:54;11.90;36.70
28548;DHT22;68292;49.600;8.746;2023-02-28T10:08:30;11.90;36.70
28548;DHT22;68292;49.600;8.746;2023-02-28T10:11:06;12.00;36.50
28548;DHT22;68292;49.600;8.746;2023-02-28T10:13:37;12.00;36.50
28548;DHT22;68292;49.600;8.746;2023-02-28T10:16:22;12.10;36.60
28548;DHT22;68292;49.600;8.746;2023-02-28T10:18:59;12.10;36.30
28548;DHT22;68292;49.600;8.746;2023-02-28T10:21:34;12.10;36.10
28548;DHT22;68292;49.600;8.746;2023-02-28T10:24:25;12.10;36.00
28548;DHT22;68292;49.600;8.746;2023-02-28T10:27:00;12.10;35.50
28548;DHT22;68292;49.600;8.746;2023-02-28T10:29:32;12.10;35.70
28548;DHT22;68292;49.600;8.746;2023-02-28T10:32:02;12.10;35.70
28548;DHT22;68292;49.600;8.746;2023-02-28T10:34:32;12.10;35.70
28548;DHT22;68292;49.600;8.746;2023-02-28T10:37:00;12.00;35.60
28548;DHT22;68292;49.600;8.746;2023-02-28T10:39:38;12.00;35.70
28548;DHT22;68292;49.600;8.746;2023-02-28T10:42:20;11.90;35.60
28548;DHT22;68292;49.600;8.746;2023-02-28T10:45:10;11.90;35.60
28548;DHT22;68292;49.600;8.746;2023-02-28T10:47:51;11.90;35.60
28548;DHT22;68292;49.600;8.746;2023-02-28T10:50:28;11.90;35.70
28548;DHT22;68292;49.600;8.746;2023-02-28T10:53:10;11.80;35.60
28548;DHT22;68292;49.600;8.746;2023-02-28T10:55:56;11.90;35.60
28548;DHT22;68292;49.600;8.746;2023-02-28T10:58:28;11.80;35.60
28548;DHT22;68292;49.600;8.746;2023-02-28T11:00:59;11.80;35.70
28548;DHT22;68292;49.600;8.746;2023-02-28T11:03:33;11.80;35.60
28548;DHT22;68292;49.600;8.746;2023-02-28T11:06:08;11.80;35.50
28548;DHT22;68292;49.600;8.746;2023-02-28T11:08:48;11.80;35.50
28548;DHT22;68292;49.600;8.746;2023-02-28T11:11:22;11.80;35.40
28548;DHT22;68292;49.600;8.746;2023-02-28T11:13:55;11.80;35.60
28548;DHT22;68292;49.600;8.746;2023-02-28T11:16:32;11.80;35.70
28548;DHT22;68292;49.600;8.746;2023-02-28T11:19:04;11.80;35.60
28548;DHT22;68292;49.600;8.746;2023-02-28T11:21:36;11.80;35.70
28548;DHT22;68292;49.600;8.746;2023-02-28T11:24:16;11.80;35.80
28548;DHT22;68292;49.600;8.746;2023-02-28T11:26:51;11.80;35.90
28548;DHT22;68292;49.600;8.746;2023-02-28T11:29:21;11.80;36.00
28548;DHT22;68292;49.600;8.746;2023-02-28T11:32:09;11.80;35.90
28548;DHT22;68292;49.600;8.746;2023-02-28T11:34:42;11.80;35.70
28548;DHT22;68292;49.600;8.746;2023-02-28T11:37:13;11.80;35.90
28548;DHT22;68292;49.600;8.746;2023-02-28T11:39:44;11.80;35.90
28548;DHT22;68292;49.600;8.746;2023-02-28T11:42:42;11.80;35.70
28548;DHT22;68292;49.600;8.746;2023-02-28T11:45:27;11.80;35.50
28548;DHT22;68292;49.600;8.746;2023-02-28T11:48:15;11.80;35.60
28548;DHT22;68292;49.600;8.746;2023-02-28T11:50:54;11.80;35.60
28548;DHT22;68292;49.600;8.746;2023-02-28T11:53:49;11.80;35.60
28548;DHT22;68292;49.600;8.746;2023-02-28T11:56:26;11.80;35.40
28548;DHT22;68292;49.600;8.746;2023-02-28T11:59:20;11.80;35.60
28548;DHT22;68292;49.600;8.746;2023-02-28T12:02:05;11.80;35.60
28548;DHT22;68292;49.600;8.746;2023-02-28T12:04:53;11.80;35.70
28548;DHT22;68292;49.600;8.746;2023-02-28T12:07:42;11.80;35.70
28548;DHT22;68292;49.600;8.746;2023-02-28T12:10:21;11.80;35.70
28548;DHT22;68292;49.600;8.746;2023-02-28T12:13:12;11.80;35.90
28548;DHT22;68292;49.600;8.746;2023-02-28T12:19:17;11.80;36.10
28548;DHT22;68292;49.600;8.746;2023-02-28T12:22:06;11.80;36.10
28548;DHT22;68292;49.600;8.746;2023-02-28T12:25:24;11.80;36.00
28548;DHT22;68292;49.600;8.746;2023-02-28T12:28:04;11.90;35.90
28548;DHT22;68292;49.600;8.746;2023-02-28T12:30:35;11.90;35.90
28548;DHT22;68292;49.600;8.746;2023-02-28T12:33:10;11.90;36.30
28548;DHT22;68292;49.600;8.746;2023-02-28T12:35:47;11.90;35.60
28548;DHT22;68292;49.600;8.746;2023-02-28T12:38:21;11.90;35.60
28548;DHT22;68292;49.600;8.746;2023-02-28T12:40:54;11.90;35.60
28548;DHT22;68292;49.600;8.746;2023-02-28T12:43:29;11.90;35.60
28548;DHT22;68292;49.600;8.746;2023-02-28T12:46:03;11.90;35.80
28548;DHT22;68292;49.600;8.746;2023-02-28T12:48:41;11.90;35.80
28548;DHT22;68292;49.600;8.746;2023-02-28T12:51:13;11.90;35.60
28548;DHT22;68292;49.600;8.746;2023-02-28T12:53:53;11.90;35.60
28548;DHT22;68292;49.600;8.746;2023-02-28T12:56:36;12.00;35.50
28548;DHT22;68292;49.600;8.746;2023-02-28T12:59:17;12.00;35.40
28548;DHT22;68292;49.600;8.746;2023-02-28T13:02:15;12.00;35.50
28548;DHT22;68292;49.600;8.746;2023-02-28T13:05:06;12.00;35.50
28548;DHT22;68292;49.600;8.746;2023-02-28T13:10:43;12.00;35.30
28548;DHT22;68292;49.600;8.746;2023-02-28T13:13:18;12.00;35.30
28548;DHT22;68292;49.600;8.746;2023-02-28T13:15:59;12.00;35.40
28548;DHT22;68292;49.600;8.746;2023-02-28T13:18:35;12.00;35.30
28548;DHT22;68292;49.600;8.746;2023-02-28T13:21:10;12.00;35.30
28548;DHT22;68292;49.600;8.746;2023-02-28T13:24:01;12.00;35.40
28548;DHT22;68292;49.600;8.746;2023-02-28T13:29:59;12.00;35.40
28548;DHT22;68292;49.600;8.746;2023-02-28T13:32:34;12.00;35.50
28548;DHT22;68292;49.600;8.746;2023-02-28T13:38:33;12.00;35.30
28548;DHT22;68292;49.600;8.746;2023-02-28T13:44:23;12.00;35.40
28548;DHT22;68292;49.600;8.746;2023-02-28T13:47:22;12.00;35.60
28548;DHT22;68292;49.600;8.746;2023-02-28T13:49:53;12.00;35.60
28548;DHT22;68292;49.600;8.746;2023-02-28T13:52:23;12.10;35.80
28548;DHT22;68292;49.600;8.746;2023-02-28T13:55:24;12.10;35.80
28548;DHT22;68292;49.600;8.746;2023-02-28T13:58:12;12.10;35.80
28548;DHT22;68292;49.600;8.746;2023-02-28T14:01:05;12.10;35.50
28548;DHT22;68292;49.600;8.746;2023-02-28T14:07:00;12.10;35.40
28548;DHT22;68292;49.600;8.746;2023-02-28T14:09:32;12.10;35.40
28548;DHT22;68292;49.600;8.746;2023-02-28T14:15:40;12.10;35.40
28548;DHT22;68292;49.600;8.746;2023-02-28T14:18:25;12.10;35.20
28548;DHT22;68292;49.600;8.746;2023-02-28T14:21:01;12.10;35.20
28548;DHT22;68292;49.600;8.746;2023-02-28T14:23:56;12.00;35.30
28548;DHT22;68292;49.600;8.746;2023-02-28T14:26:51;12.00;35.00
28548;DHT22;68292;49.600;8.746;2023-02-28T14:29:37;12.00;35.10
28548;DHT22;68292;49.600;8.746;2023-02-28T14:32:33;12.00;35.10
28548;DHT22;68292;49.600;8.746;2023-02-28T14:35:16;12.00;35.20
28548;DHT22;68292;49.600;8.746;2023-02-28T14:37:50;12.00;35.20
28548;DHT22;68292;49.600;8.746;2023-02-28T14:40:22;12.00;35.30
28548;DHT22;68292;49.600;8.746;2023-02-28T14:42:57;12.00;35.30
28548;DHT22;68292;49.600;8.746;2023-02-28T14:45:29;12.00;35.40
28548;DHT22;68292;49.600;8.746;2023-02-28T14:48:01;12.00;35.30
28548;DHT22;68292;49.600;8.746;2023-02-28T14:50:31;12.00;35.20
28548;DHT22;68292;49.600;8.746;2023-02-28T14:53:01;12.00;35.20
28548;DHT22;68292;49.600;8.746;2023-02-28T14:55:34;12.00;35.20
28548;DHT22;68292;49.600;8.746;2023-02-28T14:58:05;12.00;35.20
28548;DHT22;68292;49.600;8.746;2023-02-28T15:00:36;12.00;35.20
28548;DHT22;68292;49.600;8.746;2023-02-28T15:03:18;12.00;35.30
28548;DHT22;68292;49.600;8.746;2023-02-28T15:05:52;12.00;35.10
28548;DHT22;68292;49.600;8.746;2023-02-28T15:08:22;12.00;35.20
28548;DHT22;68292;49.600;8.746;2023-02-28T15:10:53;12.10;35.30
28548;DHT22;68292;49.600;8.746;2023-02-28T15:13:24;12.00;35.20
28548;DHT22;68292;49.600;8.746;2023-02-28T15:15:59;12.10;35.30
28548;DHT22;68292;49.600;8.746;2023-02-28T15:18:38;12.10;35.30
28548;DHT22;68292;49.600;8.746;2023-02-28T15:21:14;12.10;35.20
28548;DHT22;68292;49.600;8.746;2023-02-28T15:23:48;12.10;35.30
28548;DHT22;68292;49.600;8.746;2023-02-28T15:26:21;12.10;35.30
28548;DHT22;68292;49.600;8.746;2023-02-28T15:28:55;12.10;35.30
28548;DHT22;68292;49.600;8.746;2023-02-28T15:31:28;12.10;35.20
28548;DHT22;68292;49.600;8.746;2023-02-28T15:34:20;12.10;35.20
28548;DHT22;68292;49.600;8.746;2023-02-28T15:36:54;12.20;35.20
28548;DHT22;68292;49.600;8.746;2023-02-28T15:39:26;12.20;35.30
28548;DHT22;68292;49.600;8.746;2023-02-28T15:42:10;12.20;35.40
28548;DHT22;68292;49.600;8.746;2023-02-28T15:44:40;12.20;35.40
28548;DHT22;68292;49.600;8.746;2023-02-28T15:47:16;12.20;35.40
28548;DHT22;68292;49.600;8.746;2023-02-28T15:49:49;12.20;35.40
28548;DHT22;68292;49.600;8.746;2023-02-28T15:52:24;12.20;35.40
28548;DHT22;68292;49.600;8.746;2023-02-28T15:54:56;12.30;35.40
28548;DHT22;68292;49.600;8.746;2023-02-28T15:57:27;12.30;35.40
28548;DHT22;68292;49.600;8.746;2023-02-28T16:00:00;12.30;35.30
28548;DHT22;68292;49.600;8.746;2023-02-28T16:02:40;12.30;35.20
28548;DHT22;68292;49.600;8.746;2023-02-28T16:05:23;12.30;35.30
28548;DHT22;68292;49.600;8.746;2023-02-28T16:07:59;12.30;35.20
28548;DHT22;68292;49.600;8.746;2023-02-28T16:10:29;12.30;35.30
28548;DHT22;68292;49.600;8.746;2023-02-28T16:12:58;12.30;35.30
28548;DHT22;68292;49.600;8.746;2023-02-28T16:15:29;12.30;35.40
28548;DHT22;68292;49.600;8.746;2023-02-28T16:18:00;12.30;35.30
28548;DHT22;68292;49.600;8.746;2023-02-28T16:20:31;12.30;35.40
28548;DHT22;68292;49.600;8.746;2023-02-28T16:22:59;12.30;35.30
28548;DHT22;68292;49.600;8.746;2023-02-28T16:25:34;12.30;35.40
28548;DHT22;68292;49.600;8.746;2023-02-28T16:28:06;12.30;35.30
28548;DHT22;68292;49.600;8.746;2023-02-28T16:30:38;12.30;35.30
28548;DHT22;68292;49.600;8.746;2023-02-28T16:33:07;12.30;35.30
28548;DHT22;68292;49.600;8.746;2023-02-28T16:35:38;12.30;35.30
28548;DHT22;68292;49.600;8.746;2023-02-28T16:38:06;12.30;35.30
28548;DHT22;68292;49.600;8.746;2023-02-28T16:40:36;12.30;35.30
28548;DHT22;68292;49.600;8.746;2023-02-28T16:43:07;12.30;35.30